createdAt,value
2023-05-06T00:01:48.584Z,20.80
2023-05-06T00:04:35.955Z,20.80
2023-05-06T00:07:23.249Z,20.80
2023-05-06T00:10:10.744Z,20.80
2023-05-06T00:12:58.026Z,20.70
2023-05-06T00:15:45.240Z,20.70
2023-05-06T00:18:32.545Z,20.70
2023-05-06T00:21:19.764Z,20.70
2023-05-06T00:24:07.194Z,20.70
2023-05-06T00:26:54.488Z,20.70
2023-05-06T00:29:41.821Z,20.70
2023-05-06T00:32:29.038Z,20.70
2023-05-06T00:35:16.286Z,20.70
2023-05-06T00:38:09.674Z,20.60
2023-05-06T00:41:01.446Z,20.60
2023-05-06T00:43:48.632Z,20.60
2023-05-06T00:46:37.007Z,20.60
2023-05-06T00:49:24.503Z,20.60
2023-05-06T00:52:11.894Z,20.50
2023-05-06T00:54:59.072Z,20.50
2023-05-06T00:57:46.722Z,20.50
2023-05-06T01:00:34.822Z,20.50
2023-05-06T01:03:22.489Z,20.50
2023-05-06T01:06:26.093Z,20.50
2023-05-06T01:10:03.800Z,20.50
2023-05-06T01:12:59.704Z,20.50
2023-05-06T01:15:50.034Z,20.50
2023-05-06T01:18:38.949Z,20.50
2023-05-06T01:21:34.649Z,20.50
2023-05-06T01:24:21.897Z,20.50
2023-05-06T01:27:10.655Z,20.50
2023-05-06T01:29:59.671Z,20.40
2023-05-06T01:33:11.120Z,20.40
2023-05-06T01:36:14.019Z,20.40
2023-05-06T01:39:20.441Z,20.40
2023-05-06T01:42:10.297Z,20.40
2023-05-06T01:44:59.354Z,20.40
2023-05-06T01:47:48.458Z,20.40
2023-05-06T01:50:36.851Z,20.40
2023-05-06T01:53:24.062Z,20.40
2023-05-06T01:56:11.310Z,20.40
2023-05-06T01:58:59.659Z,20.30
2023-05-06T02:01:47.303Z,20.20
2023-05-06T02:04:34.498Z,20.20
2023-05-06T02:07:21.661Z,20.10
2023-05-06T02:10:09.253Z,20.10
2023-05-06T02:12:57.327Z,20.00
2023-05-06T02:15:44.591Z,20.00
2023-05-06T02:18:31.830Z,19.90
2023-05-06T02:21:18.995Z,19.90
2023-05-06T02:24:06.981Z,19.90
2023-05-06T02:26:54.149Z,19.90
2023-05-06T02:29:41.520Z,19.90
2023-05-06T02:32:28.995Z,19.80
2023-05-06T02:35:16.171Z,19.70
2023-05-06T02:38:04.283Z,19.70
2023-05-06T02:40:51.440Z,19.60
2023-05-06T02:43:38.760Z,19.60
2023-05-06T02:46:25.997Z,19.50
2023-05-06T02:49:13.377Z,19.50
2023-05-06T02:52:03.244Z,19.50
2023-05-06T02:54:50.864Z,19.50
2023-05-06T02:57:38.045Z,19.50
2023-05-06T03:00:25.288Z,19.50
2023-05-06T03:03:12.568Z,19.50
2023-05-06T03:05:59.779Z,19.50
2023-05-06T03:08:47.022Z,19.50
2023-05-06T03:11:34.214Z,19.50
2023-05-06T03:14:21.461Z,19.50
2023-05-06T03:17:08.620Z,19.50
2023-05-06T03:19:55.875Z,19.40
2023-05-06T03:22:43.124Z,19.40
2023-05-06T03:25:30.378Z,19.30
2023-05-06T03:28:17.548Z,19.30
2023-05-06T03:31:04.867Z,19.30
2023-05-06T03:33:52.076Z,19.30
2023-05-06T03:36:39.250Z,19.30
2023-05-06T03:39:26.489Z,19.30
2023-05-06T03:42:13.707Z,19.30
2023-05-06T03:45:01.038Z,19.40
2023-05-06T03:47:48.430Z,19.40
2023-05-06T03:50:37.745Z,19.30
2023-05-06T03:53:25.236Z,19.30
2023-05-06T03:56:12.492Z,19.30
2023-05-06T03:58:59.650Z,19.30
2023-05-06T04:01:46.902Z,19.30
2023-05-06T04:04:34.547Z,19.30
2023-05-06T04:07:21.746Z,19.20
2023-05-06T04:10:09.616Z,19.20
2023-05-06T04:12:56.802Z,19.10
2023-05-06T04:15:44.516Z,19.10
2023-05-06T04:18:32.822Z,19.10
2023-05-06T04:21:20.082Z,19.00
2023-05-06T04:24:07.694Z,19.00
2023-05-06T04:26:55.821Z,19.00
2023-05-06T04:29:43.030Z,19.00
2023-05-06T04:32:30.224Z,19.10
2023-05-06T04:35:18.009Z,19.10
2023-05-06T04:38:06.179Z,19.10
2023-05-06T04:40:53.658Z,19.10
2023-05-06T04:43:41.497Z,19.10
2023-05-06T04:46:29.031Z,19.10
2023-05-06T04:49:16.182Z,19.10
2023-05-06T04:52:03.533Z,19.10
2023-05-06T04:54:50.774Z,19.10
2023-05-06T04:57:38.033Z,19.10
2023-05-06T05:00:27.499Z,19.10
2023-05-06T05:03:15.028Z,19.10
2023-05-06T05:06:02.562Z,19.10
2023-05-06T05:08:50.001Z,19.10
2023-05-06T05:11:38.435Z,19.10
2023-05-06T05:14:25.702Z,19.10
2023-05-06T05:17:12.922Z,19.00
2023-05-06T05:20:00.282Z,19.10
2023-05-06T05:22:50.600Z,19.00
2023-05-06T05:25:47.113Z,19.10
2023-05-06T05:28:34.351Z,19.10
2023-05-06T05:31:21.628Z,19.10
2023-05-06T05:34:08.894Z,19.10
2023-05-06T05:36:57.553Z,19.20
2023-05-06T05:39:44.966Z,19.20
2023-05-06T05:42:33.765Z,19.20
2023-05-06T05:45:21.324Z,19.30
2023-05-06T05:48:08.502Z,19.30
2023-05-06T05:50:55.709Z,19.30
2023-05-06T05:53:43.026Z,19.40
2023-05-06T05:56:30.219Z,19.50
2023-05-06T05:59:17.416Z,19.60
2023-05-06T06:02:05.242Z,19.60
2023-05-06T06:04:55.158Z,19.60
2023-05-06T06:07:42.479Z,19.60
2023-05-06T06:10:29.794Z,19.70
2023-05-06T06:13:17.144Z,19.80
2023-05-06T06:16:05.242Z,19.80
2023-05-06T06:18:53.818Z,19.90
2023-05-06T06:21:41.167Z,19.90
2023-05-06T06:24:28.374Z,20.00
2023-05-06T06:27:15.545Z,20.00
2023-05-06T06:30:03.623Z,20.00
2023-05-06T06:32:53.721Z,20.00
2023-05-06T06:35:40.995Z,20.10
2023-05-06T06:38:28.361Z,20.10
2023-05-06T06:41:15.499Z,20.20
2023-05-06T06:44:02.730Z,20.20
2023-05-06T06:46:49.930Z,20.30
2023-05-06T06:49:37.242Z,20.30
2023-05-06T06:52:24.497Z,20.40
2023-05-06T06:55:11.967Z,20.50
2023-05-06T06:57:59.417Z,20.50
2023-05-06T07:00:46.612Z,20.50
2023-05-06T07:03:33.981Z,20.60
2023-05-06T07:06:21.267Z,20.70
2023-05-06T07:09:08.705Z,20.70
2023-05-06T07:11:56.648Z,20.80
2023-05-06T07:14:43.807Z,20.90
2023-05-06T07:17:31.035Z,21.00
2023-05-06T07:20:18.402Z,21.00
2023-05-06T07:23:05.640Z,21.10
2023-05-06T07:25:52.955Z,21.30
2023-05-06T07:28:40.223Z,21.40
2023-05-06T07:31:27.471Z,21.40
2023-05-06T07:34:14.653Z,21.50
2023-05-06T07:37:02.096Z,21.60
2023-05-06T07:39:49.253Z,21.70
2023-05-06T07:42:36.518Z,21.70
2023-05-06T07:45:25.159Z,21.80
2023-05-06T07:48:12.353Z,21.90
2023-05-06T07:51:00.143Z,22.00
2023-05-06T07:53:47.433Z,22.00
2023-05-06T07:56:34.635Z,22.10
2023-05-06T07:59:22.008Z,22.20
2023-05-06T08:02:09.210Z,22.30
2023-05-06T08:04:56.453Z,22.40
2023-05-06T08:07:43.885Z,22.40
2023-05-06T08:10:31.126Z,22.40
2023-05-06T08:13:18.618Z,22.40
2023-05-06T08:16:06.877Z,22.50
2023-05-06T08:18:54.175Z,22.50
2023-05-06T08:21:41.439Z,22.50
2023-05-06T08:24:28.829Z,22.60
2023-05-06T08:27:16.106Z,22.60
2023-05-06T08:30:03.510Z,22.60
2023-05-06T08:32:52.243Z,22.60
2023-05-06T08:35:39.447Z,22.70
2023-05-06T08:38:26.713Z,22.70
2023-05-06T08:41:17.144Z,22.80
2023-05-06T08:44:05.731Z,22.90
2023-05-06T08:46:53.256Z,23.00
2023-05-06T08:49:40.572Z,23.00
2023-05-06T08:52:28.686Z,23.10
2023-05-06T08:55:16.742Z,23.10
2023-05-06T08:58:07.079Z,23.20
2023-05-06T09:00:54.547Z,23.30
2023-05-06T09:03:41.840Z,23.40
2023-05-06T09:06:29.180Z,23.40
2023-05-06T09:09:16.521Z,23.50
2023-05-06T09:12:04.159Z,23.50
2023-05-06T09:14:51.700Z,23.70
2023-05-06T09:17:38.940Z,23.80
2023-05-06T09:20:26.140Z,23.90
2023-05-06T09:23:16.093Z,24.00
2023-05-06T09:26:03.565Z,24.10
2023-05-06T09:28:51.769Z,24.10
2023-05-06T09:31:44.020Z,24.20
2023-05-06T09:34:31.286Z,24.30
2023-05-06T09:37:20.498Z,24.30
2023-05-06T09:40:09.388Z,24.30
2023-05-06T09:42:57.017Z,24.40
2023-05-06T09:45:46.566Z,24.50
2023-05-06T09:48:33.888Z,24.60
2023-05-06T09:51:22.192Z,24.70
2023-05-06T09:54:10.011Z,24.80
2023-05-06T09:56:59.779Z,24.80
2023-05-06T09:59:48.922Z,25.00
2023-05-06T10:02:37.339Z,25.00
2023-05-06T10:05:26.307Z,25.00
2023-05-06T10:08:18.663Z,25.00
2023-05-06T10:11:07.154Z,25.10
2023-05-06T10:13:54.459Z,25.20
2023-05-06T10:16:42.170Z,25.20
2023-05-06T10:19:30.831Z,25.20
2023-05-06T10:22:29.989Z,25.10
2023-05-06T10:25:37.346Z,25.20
2023-05-06T10:28:31.248Z,25.30
2023-05-06T10:31:18.923Z,25.30
2023-05-06T10:34:08.911Z,25.40
2023-05-06T10:36:59.100Z,25.40
2023-05-06T10:39:46.948Z,25.60
2023-05-06T10:42:35.525Z,25.60
2023-05-06T10:45:23.085Z,25.70
2023-05-06T10:48:10.319Z,25.70
2023-05-06T10:51:17.408Z,25.80
2023-05-06T10:54:11.406Z,25.80
2023-05-06T10:56:58.962Z,25.90
2023-05-06T10:59:47.225Z,25.90
2023-05-06T11:02:34.689Z,25.90
2023-05-06T11:05:22.900Z,26.00
2023-05-06T11:08:11.133Z,26.00
2023-05-06T11:10:58.366Z,26.10
2023-05-06T11:13:46.018Z,26.20
2023-05-06T11:16:50.356Z,26.30
2023-05-06T11:19:39.062Z,26.30
2023-05-06T11:22:44.464Z,26.40
2023-05-06T11:25:42.371Z,26.30
2023-05-06T11:28:29.974Z,26.40
2023-05-06T11:31:18.160Z,26.40
2023-05-06T11:34:09.046Z,26.40
2023-05-06T11:37:02.751Z,26.50
2023-05-06T11:39:50.178Z,26.50
2023-05-06T11:42:37.388Z,26.50
2023-05-06T11:45:24.545Z,26.60
2023-05-06T11:48:16.268Z,26.60
2023-05-06T11:51:03.996Z,26.60
2023-05-06T11:54:04.908Z,26.60
2023-05-06T11:56:54.283Z,26.60
2023-05-06T11:59:41.796Z,26.50
2023-05-06T12:02:29.026Z,26.50
2023-05-06T12:05:16.447Z,26.40
2023-05-06T12:08:08.373Z,26.40
2023-05-06T12:11:09.062Z,26.40
2023-05-06T12:13:56.822Z,26.50
2023-05-06T12:16:44.191Z,26.50
2023-05-06T12:19:32.254Z,26.40
2023-05-06T12:22:24.821Z,26.30
2023-05-06T12:25:16.030Z,26.30
2023-05-06T12:28:16.996Z,26.40
2023-05-06T12:31:20.876Z,26.40
2023-05-06T12:34:08.185Z,26.50
2023-05-06T12:36:55.387Z,26.50
2023-05-06T12:39:42.598Z,26.60
2023-05-06T12:42:29.835Z,26.60
2023-05-06T12:45:17.632Z,26.60
2023-05-06T12:48:06.736Z,26.60
2023-05-06T12:50:53.993Z,26.60
2023-05-06T12:53:41.248Z,26.60
2023-05-06T12:56:28.447Z,26.50
2023-05-06T12:59:15.612Z,26.40
2023-05-06T13:02:03.757Z,26.40
2023-05-06T13:04:51.023Z,26.40
2023-05-06T13:07:38.381Z,26.30
2023-05-06T13:10:25.707Z,26.30
2023-05-06T13:13:12.974Z,26.30
2023-05-06T13:16:00.433Z,26.30
2023-05-06T13:18:47.732Z,26.30
2023-05-06T13:21:35.787Z,26.20
2023-05-06T13:24:23.020Z,26.20
2023-05-06T13:27:10.488Z,26.20
2023-05-06T13:29:58.287Z,26.30
2023-05-06T13:32:46.866Z,26.30
2023-05-06T13:35:34.147Z,26.50
2023-05-06T13:38:21.770Z,26.50
2023-05-06T13:41:08.978Z,26.60
2023-05-06T13:43:56.221Z,26.60
2023-05-06T13:46:45.626Z,26.60
2023-05-06T13:49:33.632Z,26.50
2023-05-06T13:52:20.791Z,26.50
2023-05-06T13:55:08.833Z,26.50
2023-05-06T13:57:56.225Z,26.50
2023-05-06T14:00:43.506Z,26.50
2023-05-06T14:03:30.755Z,26.50
2023-05-06T14:06:18.056Z,26.50
2023-05-06T14:09:05.364Z,26.50
2023-05-06T14:11:52.576Z,26.60
2023-05-06T14:14:39.737Z,26.50
2023-05-06T14:17:27.059Z,26.50
2023-05-06T14:20:14.319Z,26.50
2023-05-06T14:23:04.172Z,26.50
2023-05-06T14:25:51.441Z,26.50
2023-05-06T14:28:38.693Z,26.50
2023-05-06T14:31:26.648Z,26.50
2023-05-06T14:34:13.857Z,26.40
2023-05-06T14:37:01.018Z,26.30
2023-05-06T14:39:48.217Z,26.30
2023-05-06T14:42:35.907Z,26.20
2023-05-06T14:45:23.159Z,26.20
2023-05-06T14:48:10.640Z,26.20
2023-05-06T14:50:57.914Z,26.20
2023-05-06T14:53:46.700Z,26.30
2023-05-06T14:56:33.982Z,26.30
2023-05-06T14:59:21.116Z,26.30
2023-05-06T15:02:10.213Z,26.20
2023-05-06T15:04:57.517Z,26.10
2023-05-06T15:07:44.718Z,26.10
2023-05-06T15:10:32.015Z,26.00
2023-05-06T15:13:19.334Z,26.00
2023-05-06T15:16:09.130Z,26.00
2023-05-06T15:18:58.298Z,26.00
2023-05-06T15:21:45.885Z,26.00
2023-05-06T15:24:33.303Z,26.00
2023-05-06T15:27:20.558Z,26.00
2023-05-06T15:30:08.500Z,25.90
2023-05-06T15:32:57.196Z,25.90
2023-05-06T15:35:44.438Z,25.90
2023-05-06T15:38:53.666Z,25.90
2023-05-06T15:41:40.898Z,25.80
2023-05-06T15:44:28.267Z,25.70
2023-05-06T15:47:15.529Z,25.70
2023-05-06T15:50:09.257Z,25.60
2023-05-06T15:53:02.100Z,25.60
2023-05-06T15:55:56.541Z,25.60
2023-05-06T15:58:45.170Z,25.70
2023-05-06T16:04:23.581Z,25.80
2023-05-06T16:07:10.946Z,25.80
2023-05-06T16:09:58.164Z,25.80
2023-05-06T16:12:46.122Z,25.80
2023-05-06T16:15:33.417Z,25.70
2023-05-06T16:18:20.729Z,25.60
2023-05-06T16:21:08.023Z,25.50
2023-05-06T16:23:55.276Z,25.50
2023-05-06T16:26:42.460Z,25.50
2023-05-06T16:29:29.710Z,25.50
2023-05-06T16:32:16.928Z,25.50
2023-05-06T16:35:04.345Z,25.40
2023-05-06T16:37:51.682Z,25.40
2023-05-06T16:40:47.591Z,25.40
2023-05-06T16:43:34.851Z,25.50
2023-05-06T16:46:24.152Z,25.50
2023-05-06T16:49:11.737Z,25.50
2023-05-06T16:52:00.679Z,25.50
2023-05-06T16:54:47.921Z,25.60
2023-05-06T16:57:35.471Z,25.60
2023-05-06T17:00:23.661Z,25.60
2023-05-06T17:03:11.496Z,25.60
2023-05-06T17:05:58.994Z,25.60
2023-05-06T17:08:47.294Z,25.60
2023-05-06T17:11:34.530Z,25.60
2023-05-06T17:14:22.729Z,25.60
2023-05-06T17:17:10.161Z,25.60
2023-05-06T17:19:57.819Z,25.60
2023-05-06T17:22:45.035Z,25.60
2023-05-06T17:25:32.274Z,25.60
2023-05-06T17:28:19.476Z,25.50
2023-05-06T17:31:08.075Z,25.50
2023-05-06T17:33:55.401Z,25.50
2023-05-06T17:36:42.694Z,25.50
2023-05-06T17:39:30.676Z,25.40
2023-05-06T17:42:17.891Z,25.40
2023-05-06T17:45:05.842Z,25.40
2023-05-06T17:47:53.185Z,25.40
2023-05-06T17:50:40.602Z,25.40
2023-05-06T17:53:28.163Z,25.40
2023-05-06T17:56:15.415Z,25.40
2023-05-06T17:59:04.974Z,25.40
2023-05-06T18:01:52.212Z,25.40
2023-05-06T18:04:39.459Z,25.30
2023-05-06T18:07:27.121Z,25.30
2023-05-06T18:10:14.756Z,25.30
2023-05-06T18:13:05.107Z,25.30
2023-05-06T18:15:52.999Z,25.30
2023-05-06T18:18:40.634Z,25.20
2023-05-06T18:21:27.987Z,25.20
2023-05-06T18:24:16.786Z,25.20
2023-05-06T18:27:04.631Z,25.20
2023-05-06T18:29:52.520Z,25.10
2023-05-06T18:32:40.023Z,25.10
2023-05-06T18:35:27.892Z,25.10
2023-05-06T18:38:16.165Z,25.00
2023-05-06T18:41:04.114Z,25.00
2023-05-06T18:43:51.612Z,25.00
2023-05-06T18:46:39.280Z,25.00
2023-05-06T18:49:31.176Z,25.00
2023-05-06T18:52:19.305Z,25.00
2023-05-06T18:55:07.772Z,25.00
2023-05-06T18:57:55.393Z,24.90
2023-05-06T19:00:42.782Z,24.90
2023-05-06T19:03:31.554Z,24.90
2023-05-06T19:06:18.724Z,24.80
2023-05-06T19:09:07.269Z,24.80
2023-05-06T19:11:55.451Z,24.80
2023-05-06T19:14:42.698Z,24.80
2023-05-06T19:17:29.931Z,24.80
2023-05-06T19:20:17.259Z,24.70
2023-05-06T19:23:04.923Z,24.70
2023-05-06T19:25:52.359Z,24.60
2023-05-06T19:28:42.800Z,24.60
2023-05-06T19:31:30.190Z,24.60
2023-05-06T19:34:17.414Z,24.60
2023-05-06T19:37:04.663Z,24.60
2023-05-06T19:39:51.860Z,24.50
2023-05-06T19:42:39.022Z,24.50
2023-05-06T19:45:26.407Z,24.50
2023-05-06T19:48:14.693Z,24.50
2023-05-06T19:51:03.104Z,24.50
2023-05-06T19:53:50.441Z,24.40
2023-05-06T19:56:37.688Z,24.40
2023-05-06T19:59:24.839Z,24.40
2023-05-06T20:02:16.528Z,24.40
2023-05-06T20:05:04.989Z,24.30
2023-05-06T20:07:52.272Z,24.30
2023-05-06T20:10:39.492Z,24.20
2023-05-06T20:13:26.910Z,24.20
2023-05-06T20:16:14.251Z,24.20
2023-05-06T20:19:01.420Z,24.10
2023-05-06T20:21:48.610Z,24.10
2023-05-06T20:24:37.220Z,24.00
2023-05-06T20:27:24.404Z,24.00
2023-05-06T20:30:12.362Z,23.90
2023-05-06T20:33:00.234Z,23.90
2023-05-06T20:35:48.092Z,23.90
2023-05-06T20:38:36.101Z,23.90
2023-05-06T20:41:23.346Z,23.90
2023-05-06T20:44:10.784Z,23.90
2023-05-06T20:46:57.937Z,23.90
2023-05-06T20:49:45.192Z,23.80
2023-05-06T20:52:33.980Z,23.80
2023-05-06T20:55:23.302Z,23.80
2023-05-06T20:58:10.726Z,23.80
2023-05-06T21:00:58.174Z,23.70
2023-05-06T21:03:48.102Z,23.70
2023-05-06T21:06:35.640Z,23.70
2023-05-06T21:09:23.271Z,23.60
2023-05-06T21:12:10.464Z,23.70
2023-05-06T21:14:59.680Z,23.60
2023-05-06T21:17:47.184Z,23.60
2023-05-06T21:20:34.678Z,23.50
2023-05-06T21:23:21.911Z,23.50
2023-05-06T21:26:10.582Z,23.50
2023-05-06T21:28:57.814Z,23.40
2023-05-06T21:31:45.007Z,23.40
2023-05-06T21:34:32.321Z,23.40
2023-05-06T21:37:19.554Z,23.40
2023-05-06T21:40:07.314Z,23.30
2023-05-06T21:42:54.487Z,23.30
2023-05-06T21:45:41.654Z,23.30
2023-05-06T21:48:28.872Z,23.30
2023-05-06T21:51:16.085Z,23.20
2023-05-06T21:54:03.762Z,23.20
2023-05-06T21:56:50.938Z,23.20
2023-05-06T21:59:38.301Z,23.20
2023-05-06T22:02:26.131Z,23.10
2023-05-06T22:05:13.630Z,23.10
2023-05-06T22:08:01.517Z,23.10
2023-05-06T22:10:48.687Z,23.00
2023-05-06T22:13:37.278Z,22.90
2023-05-06T22:16:24.492Z,22.90
2023-05-06T22:19:14.151Z,22.80
2023-05-06T22:22:01.389Z,22.70
2023-05-06T22:24:48.790Z,22.70
2023-05-06T22:27:36.021Z,22.60
2023-05-06T22:30:23.251Z,22.60
2023-05-06T22:33:10.537Z,22.50
2023-05-06T22:35:57.791Z,22.50
2023-05-06T22:38:45.439Z,22.40
2023-05-06T22:41:32.638Z,22.40
2023-05-06T22:44:19.846Z,22.30
2023-05-06T22:47:07.182Z,22.30
2023-05-06T22:49:54.464Z,22.30
2023-05-06T22:52:41.734Z,22.30
2023-05-06T22:55:28.949Z,22.30
2023-05-06T22:58:16.152Z,22.20
2023-05-06T23:01:03.551Z,22.20
2023-05-06T23:03:51.156Z,22.20
2023-05-06T23:06:39.990Z,22.20
2023-05-06T23:09:27.200Z,22.20
2023-05-06T23:12:14.377Z,22.20
2023-05-06T23:15:01.603Z,22.20
2023-05-06T23:17:48.835Z,22.20
2023-05-06T23:20:36.138Z,22.20
2023-05-06T23:23:23.314Z,22.20
2023-05-06T23:26:10.468Z,22.20
2023-05-06T23:28:57.663Z,22.20
2023-05-06T23:31:44.811Z,22.20
2023-05-06T23:34:31.973Z,22.20
2023-05-06T23:37:19.221Z,22.30
2023-05-06T23:40:07.277Z,22.20
2023-05-06T23:42:54.454Z,22.20
2023-05-06T23:45:41.614Z,22.20
2023-05-06T23:48:28.824Z,22.30
2023-05-06T23:51:16.321Z,22.20
2023-05-06T23:54:03.516Z,22.20
2023-05-06T23:56:50.769Z,22.30
2023-05-06T23:59:38.044Z,22.30
